sensor_id;sensor_type;location;lat;lon;timestamp;P1;durP1;ratioP1;P2;durP2;ratioP2
68025;SDS011;54819;48.030;14.710;2023-03-14T00:01:14;13.40;;;3.70;;
68025;SDS011;54819;48.030;14.710;2023-03-14T00:03:43;15.80;;;4.70;;
68025;SDS011;54819;48.030;14.710;2023-03-14T00:06:12;18.10;;;4.30;;
68025;SDS011;54819;48.030;14.710;2023-03-14T00:08:42;19.90;;;4.90;;
68025;SDS011;54819;48.030;14.710;2023-03-14T00:11:15;22.30;;;5.70;;
68025;SDS011;54819;48.030;14.710;2023-03-14T00:13:52;29.60;;;6.90;;
68025;SDS011;54819;48.030;14.710;2023-03-14T00:16:19;22.70;;;6.00;;
68025;SDS011;54819;48.030;14.710;2023-03-14T00:18:48;21.30;;;5.60;;
68025;SDS011;54819;48.030;14.710;2023-03-14T00:21:15;15.50;;;4.20;;
68025;SDS011;54819;48.030;14.710;2023-03-14T00:23:42;15.10;;;4.90;;
68025;SDS011;54819;48.030;14.710;2023-03-14T00:26:14;13.50;;;4.80;;
68025;SDS011;54819;48.030;14.710;2023-03-14T00:28:43;12.80;;;5.10;;
68025;SDS011;54819;48.030;14.710;2023-03-14T00:31:13;9.80;;;3.10;;
68025;SDS011;54819;48.030;14.710;2023-03-14T00:33:43;8.40;;;3.40;;
68025;SDS011;54819;48.030;14.710;2023-03-14T00:36:16;11.60;;;3.00;;
68025;SDS011;54819;48.030;14.710;2023-03-14T00:38:46;13.10;;;3.70;;
68025;SDS011;54819;48.030;14.710;2023-03-14T00:41:17;13.70;;;4.00;;
68025;SDS011;54819;48.030;14.710;2023-03-14T00:43:46;8.40;;;3.00;;
68025;SDS011;54819;48.030;14.710;2023-03-14T00:46:12;9.90;;;3.50;;
68025;SDS011;54819;48.030;14.710;2023-03-14T00:48:40;5.80;;;2.30;;
68025;SDS011;54819;48.030;14.710;2023-03-14T00:51:08;6.80;;;2.90;;
68025;SDS011;54819;48.030;14.710;2023-03-14T00:53:37;6.20;;;2.20;;
68025;SDS011;54819;48.030;14.710;2023-03-14T00:56:07;4.90;;;1.90;;
68025;SDS011;54819;48.030;14.710;2023-03-14T00:58:36;3.20;;;1.60;;
68025;SDS011;54819;48.030;14.710;2023-03-14T01:01:16;4.20;;;1.70;;
68025;SDS011;54819;48.030;14.710;2023-03-14T01:03:45;4.00;;;1.60;;
68025;SDS011;54819;48.030;14.710;2023-03-14T01:06:17;4.90;;;2.00;;
68025;SDS011;54819;48.030;14.710;2023-03-14T01:08:46;5.10;;;2.40;;
68025;SDS011;54819;48.030;14.710;2023-03-14T01:11:17;7.70;;;3.40;;
68025;SDS011;54819;48.030;14.710;2023-03-14T01:13:46;4.40;;;2.50;;
68025;SDS011;54819;48.030;14.710;2023-03-14T01:16:14;5.70;;;2.80;;
68025;SDS011;54819;48.030;14.710;2023-03-14T01:18:43;6.10;;;3.00;;
68025;SDS011;54819;48.030;14.710;2023-03-14T01:21:29;6.20;;;3.00;;
68025;SDS011;54819;48.030;14.710;2023-03-14T01:23:59;8.60;;;3.10;;
68025;SDS011;54819;48.030;14.710;2023-03-14T01:26:30;7.10;;;3.30;;
68025;SDS011;54819;48.030;14.710;2023-03-14T01:28:59;8.70;;;3.20;;
68025;SDS011;54819;48.030;14.710;2023-03-14T01:31:27;6.80;;;3.50;;
68025;SDS011;54819;48.030;14.710;2023-03-14T01:33:55;7.10;;;3.50;;
68025;SDS011;54819;48.030;14.710;2023-03-14T01:36:21;7.00;;;3.40;;
68025;SDS011;54819;48.030;14.710;2023-03-14T01:38:48;7.40;;;3.20;;
68025;SDS011;54819;48.030;14.710;2023-03-14T01:41:19;6.10;;;3.10;;
68025;SDS011;54819;48.030;14.710;2023-03-14T01:43:49;6.40;;;3.40;;
68025;SDS011;54819;48.030;14.710;2023-03-14T01:46:23;6.60;;;3.50;;
68025;SDS011;54819;48.030;14.710;2023-03-14T01:48:59;7.30;;;3.50;;
68025;SDS011;54819;48.030;14.710;2023-03-14T01:54:52;5.80;;;3.00;;
68025;SDS011;54819;48.030;14.710;2023-03-14T01:57:38;7.10;;;2.30;;
68025;SDS011;54819;48.030;14.710;2023-03-14T02:00:14;4.60;;;2.10;;
68025;SDS011;54819;48.030;14.710;2023-03-14T02:02:45;3.80;;;1.90;;
68025;SDS011;54819;48.030;14.710;2023-03-14T02:05:19;5.90;;;2.40;;
68025;SDS011;54819;48.030;14.710;2023-03-14T02:08:00;5.50;;;2.10;;
68025;SDS011;54819;48.030;14.710;2023-03-14T02:10:40;7.80;;;2.10;;
68025;SDS011;54819;48.030;14.710;2023-03-14T02:13:11;4.00;;;2.30;;
68025;SDS011;54819;48.030;14.710;2023-03-14T02:16:10;5.60;;;2.50;;
68025;SDS011;54819;48.030;14.710;2023-03-14T02:18:48;3.50;;;2.00;;
68025;SDS011;54819;48.030;14.710;2023-03-14T02:21:35;4.60;;;1.90;;
68025;SDS011;54819;48.030;14.710;2023-03-14T02:24:38;5.50;;;2.10;;
68025;SDS011;54819;48.030;14.710;2023-03-14T02:27:15;4.80;;;2.10;;
68025;SDS011;54819;48.030;14.710;2023-03-14T02:29:49;4.80;;;2.30;;
68025;SDS011;54819;48.030;14.710;2023-03-14T02:32:20;6.80;;;1.90;;
68025;SDS011;54819;48.030;14.710;2023-03-14T02:34:56;5.70;;;1.90;;
68025;SDS011;54819;48.030;14.710;2023-03-14T02:37:44;4.70;;;2.00;;
68025;SDS011;54819;48.030;14.710;2023-03-14T02:40:19;3.70;;;1.70;;
68025;SDS011;54819;48.030;14.710;2023-03-14T02:42:49;5.60;;;1.70;;
68025;SDS011;54819;48.030;14.710;2023-03-14T02:47:47;4.40;;;2.10;;
68025;SDS011;54819;48.030;14.710;2023-03-14T02:50:26;5.00;;;2.20;;
68025;SDS011;54819;48.030;14.710;2023-03-14T02:52:57;7.90;;;3.00;;
68025;SDS011;54819;48.030;14.710;2023-03-14T02:55:24;3.80;;;1.50;;
68025;SDS011;54819;48.030;14.710;2023-03-14T02:57:54;3.50;;;1.70;;
68025;SDS011;54819;48.030;14.710;2023-03-14T03:00:21;4.00;;;1.90;;
68025;SDS011;54819;48.030;14.710;2023-03-14T03:02:48;3.40;;;1.50;;
68025;SDS011;54819;48.030;14.710;2023-03-14T03:05:15;3.10;;;1.60;;
68025;SDS011;54819;48.030;14.710;2023-03-14T03:07:42;4.30;;;1.50;;
68025;SDS011;54819;48.030;14.710;2023-03-14T03:10:09;4.40;;;1.80;;
68025;SDS011;54819;48.030;14.710;2023-03-14T03:12:37;6.70;;;2.00;;
68025;SDS011;54819;48.030;14.710;2023-03-14T03:15:04;3.20;;;1.50;;
68025;SDS011;54819;48.030;14.710;2023-03-14T03:17:33;5.90;;;1.60;;
68025;SDS011;54819;48.030;14.710;2023-03-14T03:20:00;3.00;;;1.40;;
68025;SDS011;54819;48.030;14.710;2023-03-14T03:22:26;3.60;;;1.60;;
68025;SDS011;54819;48.030;14.710;2023-03-14T03:24:53;3.70;;;1.50;;
68025;SDS011;54819;48.030;14.710;2023-03-14T03:27:20;3.10;;;1.40;;
68025;SDS011;54819;48.030;14.710;2023-03-14T03:29:46;2.90;;;1.50;;
68025;SDS011;54819;48.030;14.710;2023-03-14T03:32:14;3.70;;;1.70;;
68025;SDS011;54819;48.030;14.710;2023-03-14T03:34:40;2.80;;;1.40;;
68025;SDS011;54819;48.030;14.710;2023-03-14T03:37:07;2.30;;;1.20;;
68025;SDS011;54819;48.030;14.710;2023-03-14T03:39:36;2.80;;;1.40;;
68025;SDS011;54819;48.030;14.710;2023-03-14T03:42:03;3.40;;;1.20;;
68025;SDS011;54819;48.030;14.710;2023-03-14T03:44:29;2.10;;;1.10;;
68025;SDS011;54819;48.030;14.710;2023-03-14T03:46:56;2.50;;;1.00;;
68025;SDS011;54819;48.030;14.710;2023-03-14T03:49:23;2.30;;;1.20;;
68025;SDS011;54819;48.030;14.710;2023-03-14T03:51:50;2.10;;;0.90;;
68025;SDS011;54819;48.030;14.710;2023-03-14T03:54:17;2.10;;;1.00;;
68025;SDS011;54819;48.030;14.710;2023-03-14T03:56:43;2.60;;;1.20;;
68025;SDS011;54819;48.030;14.710;2023-03-14T03:59:10;2.50;;;0.90;;
68025;SDS011;54819;48.030;14.710;2023-03-14T04:01:37;3.10;;;1.00;;
68025;SDS011;54819;48.030;14.710;2023-03-14T04:04:04;2.50;;;0.90;;
68025;SDS011;54819;48.030;14.710;2023-03-14T04:06:31;1.60;;;1.00;;
68025;SDS011;54819;48.030;14.710;2023-03-14T04:08:59;1.70;;;0.90;;
68025;SDS011;54819;48.030;14.710;2023-03-14T04:11:40;3.30;;;0.80;;
68025;SDS011;54819;48.030;14.710;2023-03-14T04:14:18;1.20;;;0.70;;
68025;SDS011;54819;48.030;14.710;2023-03-14T04:16:45;1.70;;;1.00;;
68025;SDS011;54819;48.030;14.710;2023-03-14T04:19:14;0.80;;;0.60;;
68025;SDS011;54819;48.030;14.710;2023-03-14T04:21:41;1.50;;;0.80;;
68025;SDS011;54819;48.030;14.710;2023-03-14T04:24:12;4.70;;;0.60;;
68025;SDS011;54819;48.030;14.710;2023-03-14T04:26:42;1.60;;;0.90;;
68025;SDS011;54819;48.030;14.710;2023-03-14T04:29:09;1.70;;;0.90;;
68025;SDS011;54819;48.030;14.710;2023-03-14T04:31:39;2.60;;;0.70;;
68025;SDS011;54819;48.030;14.710;2023-03-14T04:34:06;3.00;;;0.80;;
68025;SDS011;54819;48.030;14.710;2023-03-14T04:36:37;2.60;;;1.00;;
68025;SDS011;54819;48.030;14.710;2023-03-14T04:39:09;1.60;;;0.70;;
68025;SDS011;54819;48.030;14.710;2023-03-14T04:41:38;1.90;;;0.80;;
68025;SDS011;54819;48.030;14.710;2023-03-14T04:46:34;2.10;;;0.60;;
68025;SDS011;54819;48.030;14.710;2023-03-14T04:49:03;1.10;;;0.70;;
68025;SDS011;54819;48.030;14.710;2023-03-14T04:51:29;1.00;;;0.60;;
68025;SDS011;54819;48.030;14.710;2023-03-14T04:53:56;1.90;;;0.70;;
68025;SDS011;54819;48.030;14.710;2023-03-14T04:56:23;0.30;;;0.30;;
68025;SDS011;54819;48.030;14.710;2023-03-14T04:58:51;1.70;;;1.00;;
68025;SDS011;54819;48.030;14.710;2023-03-14T05:01:18;0.70;;;0.40;;
68025;SDS011;54819;48.030;14.710;2023-03-14T05:04:03;1.50;;;0.60;;
68025;SDS011;54819;48.030;14.710;2023-03-14T05:06:45;2.00;;;0.50;;
68025;SDS011;54819;48.030;14.710;2023-03-14T05:09:32;1.00;;;0.60;;
68025;SDS011;54819;48.030;14.710;2023-03-14T05:12:20;1.20;;;0.50;;
68025;SDS011;54819;48.030;14.710;2023-03-14T05:14:56;1.50;;;0.70;;
68025;SDS011;54819;48.030;14.710;2023-03-14T05:17:49;0.60;;;0.50;;
68025;SDS011;54819;48.030;14.710;2023-03-14T05:20:36;3.80;;;0.80;;
68025;SDS011;54819;48.030;14.710;2023-03-14T05:23:24;4.00;;;0.90;;
68025;SDS011;54819;48.030;14.710;2023-03-14T05:26:14;1.10;;;0.60;;
68025;SDS011;54819;48.030;14.710;2023-03-14T05:28:52;1.80;;;0.50;;
68025;SDS011;54819;48.030;14.710;2023-03-14T05:31:28;1.80;;;0.80;;
68025;SDS011;54819;48.030;14.710;2023-03-14T05:34:18;3.00;;;1.70;;
68025;SDS011;54819;48.030;14.710;2023-03-14T05:37:03;1.80;;;0.80;;
68025;SDS011;54819;48.030;14.710;2023-03-14T05:39:50;2.10;;;0.70;;
68025;SDS011;54819;48.030;14.710;2023-03-14T05:42:39;1.60;;;0.70;;
68025;SDS011;54819;48.030;14.710;2023-03-14T05:45:38;2.40;;;1.00;;
68025;SDS011;54819;48.030;14.710;2023-03-14T05:48:25;2.40;;;1.00;;
68025;SDS011;54819;48.030;14.710;2023-03-14T05:51:06;1.60;;;0.80;;
68025;SDS011;54819;48.030;14.710;2023-03-14T05:53:44;1.50;;;0.90;;
68025;SDS011;54819;48.030;14.710;2023-03-14T05:56:32;2.50;;;0.80;;
68025;SDS011;54819;48.030;14.710;2023-03-14T05:59:10;1.30;;;0.80;;
68025;SDS011;54819;48.030;14.710;2023-03-14T06:02:15;1.40;;;0.70;;
68025;SDS011;54819;48.030;14.710;2023-03-14T06:04:48;0.90;;;0.50;;
68025;SDS011;54819;48.030;14.710;2023-03-14T06:07:14;1.20;;;0.60;;
68025;SDS011;54819;48.030;14.710;2023-03-14T06:09:42;1.40;;;0.50;;
68025;SDS011;54819;48.030;14.710;2023-03-14T06:12:09;1.00;;;0.60;;
68025;SDS011;54819;48.030;14.710;2023-03-14T06:14:39;0.80;;;0.50;;
68025;SDS011;54819;48.030;14.710;2023-03-14T06:17:06;1.20;;;0.60;;
68025;SDS011;54819;48.030;14.710;2023-03-14T06:19:38;0.60;;;0.40;;
68025;SDS011;54819;48.030;14.710;2023-03-14T06:22:05;1.20;;;0.50;;
68025;SDS011;54819;48.030;14.710;2023-03-14T06:24:32;1.90;;;0.30;;
68025;SDS011;54819;48.030;14.710;2023-03-14T06:26:59;2.40;;;0.60;;
68025;SDS011;54819;48.030;14.710;2023-03-14T06:29:29;0.90;;;0.40;;
68025;SDS011;54819;48.030;14.710;2023-03-14T06:31:56;0.80;;;0.50;;
68025;SDS011;54819;48.030;14.710;2023-03-14T06:34:24;1.50;;;0.40;;
68025;SDS011;54819;48.030;14.710;2023-03-14T06:36:52;1.10;;;0.50;;
68025;SDS011;54819;48.030;14.710;2023-03-14T06:39:19;0.90;;;0.30;;
68025;SDS011;54819;48.030;14.710;2023-03-14T06:41:47;0.20;;;0.20;;
68025;SDS011;54819;48.030;14.710;2023-03-14T06:44:15;0.20;;;0.20;;
68025;SDS011;54819;48.030;14.710;2023-03-14T06:46:43;1.60;;;0.30;;
68025;SDS011;54819;48.030;14.710;2023-03-14T06:49:10;0.50;;;0.40;;
68025;SDS011;54819;48.030;14.710;2023-03-14T06:51:37;0.40;;;0.40;;
68025;SDS011;54819;48.030;14.710;2023-03-14T06:54:04;0.40;;;0.40;;
68025;SDS011;54819;48.030;14.710;2023-03-14T06:56:31;0.40;;;0.20;;
68025;SDS011;54819;48.030;14.710;2023-03-14T06:58:58;0.80;;;0.20;;
68025;SDS011;54819;48.030;14.710;2023-03-14T07:01:29;0.90;;;0.30;;
68025;SDS011;54819;48.030;14.710;2023-03-14T07:04:03;0.40;;;0.30;;
68025;SDS011;54819;48.030;14.710;2023-03-14T07:06:30;0.20;;;0.20;;
68025;SDS011;54819;48.030;14.710;2023-03-14T07:08:57;2.50;;;1.00;;
68025;SDS011;54819;48.030;14.710;2023-03-14T07:11:24;0.70;;;0.30;;
68025;SDS011;54819;48.030;14.710;2023-03-14T07:16:19;7.20;;;3.30;;
68025;SDS011;54819;48.030;14.710;2023-03-14T07:18:47;6.90;;;2.50;;
68025;SDS011;54819;48.030;14.710;2023-03-14T07:21:14;3.70;;;1.00;;
68025;SDS011;54819;48.030;14.710;2023-03-14T07:23:41;2.80;;;0.90;;
68025;SDS011;54819;48.030;14.710;2023-03-14T07:26:08;2.00;;;0.70;;
68025;SDS011;54819;48.030;14.710;2023-03-14T07:28:36;3.30;;;0.60;;
68025;SDS011;54819;48.030;14.710;2023-03-14T07:31:07;3.20;;;0.60;;
68025;SDS011;54819;48.030;14.710;2023-03-14T07:33:34;4.00;;;0.90;;
68025;SDS011;54819;48.030;14.710;2023-03-14T07:36:02;4.00;;;1.10;;
68025;SDS011;54819;48.030;14.710;2023-03-14T07:38:30;3.60;;;1.20;;
68025;SDS011;54819;48.030;14.710;2023-03-14T07:41:23;7.00;;;1.30;;
68025;SDS011;54819;48.030;14.710;2023-03-14T07:44:13;6.70;;;1.50;;
68025;SDS011;54819;48.030;14.710;2023-03-14T07:46:40;9.90;;;1.80;;
68025;SDS011;54819;48.030;14.710;2023-03-14T07:49:07;5.30;;;1.70;;
68025;SDS011;54819;48.030;14.710;2023-03-14T07:51:34;5.60;;;1.60;;
68025;SDS011;54819;48.030;14.710;2023-03-14T07:54:01;4.20;;;1.30;;
68025;SDS011;54819;48.030;14.710;2023-03-14T07:56:27;3.50;;;1.40;;
68025;SDS011;54819;48.030;14.710;2023-03-14T07:58:54;6.50;;;2.00;;
68025;SDS011;54819;48.030;14.710;2023-03-14T08:01:21;5.50;;;1.40;;
68025;SDS011;54819;48.030;14.710;2023-03-14T08:03:48;5.70;;;1.00;;
68025;SDS011;54819;48.030;14.710;2023-03-14T08:06:15;1.00;;;0.50;;
68025;SDS011;54819;48.030;14.710;2023-03-14T08:08:41;0.60;;;0.40;;
68025;SDS011;54819;48.030;14.710;2023-03-14T08:11:08;0.80;;;0.40;;
68025;SDS011;54819;48.030;14.710;2023-03-14T08:13:36;0.50;;;0.30;;
68025;SDS011;54819;48.030;14.710;2023-03-14T08:16:04;0.40;;;0.30;;
68025;SDS011;54819;48.030;14.710;2023-03-14T08:18:31;0.60;;;0.30;;
68025;SDS011;54819;48.030;14.710;2023-03-14T08:20:58;1.20;;;0.50;;
68025;SDS011;54819;48.030;14.710;2023-03-14T08:23:25;0.70;;;0.50;;
68025;SDS011;54819;48.030;14.710;2023-03-14T08:25:52;0.30;;;0.30;;
68025;SDS011;54819;48.030;14.710;2023-03-14T08:28:18;1.10;;;0.50;;
68025;SDS011;54819;48.030;14.710;2023-03-14T08:30:45;1.40;;;0.40;;
68025;SDS011;54819;48.030;14.710;2023-03-14T08:36:05;0.90;;;0.50;;
68025;SDS011;54819;48.030;14.710;2023-03-14T08:38:33;1.20;;;0.50;;
68025;SDS011;54819;48.030;14.710;2023-03-14T08:41:01;1.60;;;0.40;;
68025;SDS011;54819;48.030;14.710;2023-03-14T08:43:30;1.20;;;0.40;;
68025;SDS011;54819;48.030;14.710;2023-03-14T08:45:59;1.40;;;0.50;;
68025;SDS011;54819;48.030;14.710;2023-03-14T08:48:28;1.40;;;0.70;;
68025;SDS011;54819;48.030;14.710;2023-03-14T08:50:57;2.10;;;0.70;;
68025;SDS011;54819;48.030;14.710;2023-03-14T08:53:30;1.30;;;0.70;;
68025;SDS011;54819;48.030;14.710;2023-03-14T08:55:56;3.60;;;0.70;;
68025;SDS011;54819;48.030;14.710;2023-03-14T08:58:24;1.10;;;0.50;;
68025;SDS011;54819;48.030;14.710;2023-03-14T09:00:51;2.20;;;0.70;;
68025;SDS011;54819;48.030;14.710;2023-03-14T09:03:17;1.00;;;0.50;;
68025;SDS011;54819;48.030;14.710;2023-03-14T09:05:44;0.80;;;0.50;;
68025;SDS011;54819;48.030;14.710;2023-03-14T09:08:11;0.80;;;0.40;;
68025;SDS011;54819;48.030;14.710;2023-03-14T09:10:37;1.20;;;0.60;;
68025;SDS011;54819;48.030;14.710;2023-03-14T09:13:04;0.40;;;0.40;;
68025;SDS011;54819;48.030;14.710;2023-03-14T09:15:32;1.60;;;0.60;;
68025;SDS011;54819;48.030;14.710;2023-03-14T09:17:59;1.60;;;0.40;;
68025;SDS011;54819;48.030;14.710;2023-03-14T09:20:26;1.60;;;0.50;;
68025;SDS011;54819;48.030;14.710;2023-03-14T09:22:53;1.50;;;0.60;;
68025;SDS011;54819;48.030;14.710;2023-03-14T09:25:20;0.70;;;0.60;;
68025;SDS011;54819;48.030;14.710;2023-03-14T09:27:47;0.40;;;0.30;;
68025;SDS011;54819;48.030;14.710;2023-03-14T09:30:13;0.50;;;0.30;;
68025;SDS011;54819;48.030;14.710;2023-03-14T09:32:40;0.50;;;0.20;;
68025;SDS011;54819;48.030;14.710;2023-03-14T09:35:07;0.30;;;0.30;;
68025;SDS011;54819;48.030;14.710;2023-03-14T09:37:34;0.70;;;0.40;;
68025;SDS011;54819;48.030;14.710;2023-03-14T09:40:01;0.80;;;0.10;;
68025;SDS011;54819;48.030;14.710;2023-03-14T09:42:36;0.20;;;0.20;;
68025;SDS011;54819;48.030;14.710;2023-03-14T09:45:13;0.40;;;0.30;;
68025;SDS011;54819;48.030;14.710;2023-03-14T09:47:48;3.50;;;0.60;;
68025;SDS011;54819;48.030;14.710;2023-03-14T09:50:26;0.20;;;0.20;;
68025;SDS011;54819;48.030;14.710;2023-03-14T09:53:03;0.20;;;0.20;;
68025;SDS011;54819;48.030;14.710;2023-03-14T09:55:33;0.20;;;0.20;;
68025;SDS011;54819;48.030;14.710;2023-03-14T09:58:08;0.50;;;0.30;;
68025;SDS011;54819;48.030;14.710;2023-03-14T10:00:38;2.40;;;0.80;;
68025;SDS011;54819;48.030;14.710;2023-03-14T10:05:38;0.30;;;0.30;;
68025;SDS011;54819;48.030;14.710;2023-03-14T10:08:10;0.20;;;0.20;;
68025;SDS011;54819;48.030;14.710;2023-03-14T10:10:38;0.80;;;0.30;;
68025;SDS011;54819;48.030;14.710;2023-03-14T10:16:03;0.80;;;0.40;;
68025;SDS011;54819;48.030;14.710;2023-03-14T10:18:32;0.50;;;0.20;;
68025;SDS011;54819;48.030;14.710;2023-03-14T10:21:21;0.70;;;0.30;;
68025;SDS011;54819;48.030;14.710;2023-03-14T10:23:54;0.30;;;0.20;;
68025;SDS011;54819;48.030;14.710;2023-03-14T10:26:34;0.30;;;0.20;;
68025;SDS011;54819;48.030;14.710;2023-03-14T10:29:08;0.70;;;0.30;;
68025;SDS011;54819;48.030;14.710;2023-03-14T10:31:48;1.00;;;0.40;;
68025;SDS011;54819;48.030;14.710;2023-03-14T10:34:28;0.90;;;0.30;;
68025;SDS011;54819;48.030;14.710;2023-03-14T10:37:25;1.30;;;0.30;;
68025;SDS011;54819;48.030;14.710;2023-03-14T10:40:00;1.20;;;0.40;;
68025;SDS011;54819;48.030;14.710;2023-03-14T10:42:34;1.10;;;0.30;;
68025;SDS011;54819;48.030;14.710;2023-03-14T10:48:52;2.40;;;0.40;;
68025;SDS011;54819;48.030;14.710;2023-03-14T10:50:56;1.40;;;0.30;;
68025;SDS011;54819;48.030;14.710;2023-03-14T10:53:33;0.90;;;0.50;;
68025;SDS011;54819;48.030;14.710;2023-03-14T10:56:06;2.30;;;0.70;;
68025;SDS011;54819;48.030;14.710;2023-03-14T10:58:41;1.90;;;0.70;;
68025;SDS011;54819;48.030;14.710;2023-03-14T11:01:14;2.40;;;0.70;;
68025;SDS011;54819;48.030;14.710;2023-03-14T11:07:31;1.10;;;0.50;;
68025;SDS011;54819;48.030;14.710;2023-03-14T11:25:13;4.60;;;0.90;;
68025;SDS011;54819;48.030;14.710;2023-03-14T11:28:17;4.00;;;1.20;;
68025;SDS011;54819;48.030;14.710;2023-03-14T11:30:55;3.70;;;1.00;;
68025;SDS011;54819;48.030;14.710;2023-03-14T11:33:44;3.10;;;0.70;;
68025;SDS011;54819;48.030;14.710;2023-03-14T11:38:59;8.20;;;1.70;;
68025;SDS011;54819;48.030;14.710;2023-03-14T11:41:30;2.00;;;0.70;;
68025;SDS011;54819;48.030;14.710;2023-03-14T11:44:24;3.90;;;1.30;;
68025;SDS011;54819;48.030;14.710;2023-03-14T11:47:21;5.20;;;1.50;;
68025;SDS011;54819;48.030;14.710;2023-03-14T11:50:08;2.90;;;0.90;;
68025;SDS011;54819;48.030;14.710;2023-03-14T11:52:56;6.30;;;2.00;;
68025;SDS011;54819;48.030;14.710;2023-03-14T11:55:35;6.10;;;2.40;;
68025;SDS011;54819;48.030;14.710;2023-03-14T11:58:21;7.30;;;2.00;;
68025;SDS011;54819;48.030;14.710;2023-03-14T12:00:54;7.00;;;1.60;;
68025;SDS011;54819;48.030;14.710;2023-03-14T12:03:31;5.60;;;1.70;;
68025;SDS011;54819;48.030;14.710;2023-03-14T12:09:24;4.90;;;1.10;;
68025;SDS011;54819;48.030;14.710;2023-03-14T12:12:00;6.50;;;1.30;;
68025;SDS011;54819;48.030;14.710;2023-03-14T12:14:32;7.90;;;1.90;;
68025;SDS011;54819;48.030;14.710;2023-03-14T12:17:18;9.40;;;2.20;;
68025;SDS011;54819;48.030;14.710;2023-03-14T12:19:59;6.70;;;1.60;;
68025;SDS011;54819;48.030;14.710;2023-03-14T12:25:37;6.30;;;1.60;;
68025;SDS011;54819;48.030;14.710;2023-03-14T12:28:16;6.90;;;1.50;;
68025;SDS011;54819;48.030;14.710;2023-03-14T12:30:47;4.40;;;1.10;;
68025;SDS011;54819;48.030;14.710;2023-03-14T12:35:50;6.30;;;1.80;;
68025;SDS011;54819;48.030;14.710;2023-03-14T12:41:46;1.40;;;0.40;;
68025;SDS011;54819;48.030;14.710;2023-03-14T12:49:53;4.60;;;1.10;;
68025;SDS011;54819;48.030;14.710;2023-03-14T12:55:29;3.00;;;1.00;;
68025;SDS011;54819;48.030;14.710;2023-03-14T13:01:15;5.90;;;1.50;;
68025;SDS011;54819;48.030;14.710;2023-03-14T13:03:54;1.90;;;0.50;;
68025;SDS011;54819;48.030;14.710;2023-03-14T13:06:52;1.50;;;0.50;;
68025;SDS011;54819;48.030;14.710;2023-03-14T13:12:00;1.50;;;0.40;;
68025;SDS011;54819;48.030;14.710;2023-03-14T13:14:30;1.00;;;0.30;;
68025;SDS011;54819;48.030;14.710;2023-03-14T13:17:01;2.00;;;0.60;;
68025;SDS011;54819;48.030;14.710;2023-03-14T13:19:57;1.50;;;0.50;;
68025;SDS011;54819;48.030;14.710;2023-03-14T13:22:29;3.70;;;1.20;;
68025;SDS011;54819;48.030;14.710;2023-03-14T13:25:10;3.00;;;0.70;;
68025;SDS011;54819;48.030;14.710;2023-03-14T13:27:37;3.50;;;0.70;;
68025;SDS011;54819;48.030;14.710;2023-03-14T13:32:42;2.40;;;0.90;;
68025;SDS011;54819;48.030;14.710;2023-03-14T13:35:16;4.50;;;1.10;;
68025;SDS011;54819;48.030;14.710;2023-03-14T13:37:59;4.50;;;1.20;;
68025;SDS011;54819;48.030;14.710;2023-03-14T13:40:44;4.20;;;1.00;;
68025;SDS011;54819;48.030;14.710;2023-03-14T13:44:00;4.70;;;1.10;;
68025;SDS011;54819;48.030;14.710;2023-03-14T13:46:16;2.60;;;0.90;;
68025;SDS011;54819;48.030;14.710;2023-03-14T13:49:00;2.60;;;1.00;;
68025;SDS011;54819;48.030;14.710;2023-03-14T13:51:30;2.30;;;0.80;;
68025;SDS011;54819;48.030;14.710;2023-03-14T13:54:01;1.90;;;0.70;;
68025;SDS011;54819;48.030;14.710;2023-03-14T13:56:33;2.60;;;0.80;;
68025;SDS011;54819;48.030;14.710;2023-03-14T13:58:59;1.90;;;0.60;;
68025;SDS011;54819;48.030;14.710;2023-03-14T14:01:35;2.10;;;0.80;;
68025;SDS011;54819;48.030;14.710;2023-03-14T14:04:14;1.10;;;0.50;;
68025;SDS011;54819;48.030;14.710;2023-03-14T14:06:47;1.30;;;0.40;;
68025;SDS011;54819;48.030;14.710;2023-03-14T14:09:23;1.00;;;0.50;;
68025;SDS011;54819;48.030;14.710;2023-03-14T14:11:57;0.60;;;0.40;;
68025;SDS011;54819;48.030;14.710;2023-03-14T14:14:55;1.90;;;0.50;;
68025;SDS011;54819;48.030;14.710;2023-03-14T14:17:56;1.90;;;0.80;;
68025;SDS011;54819;48.030;14.710;2023-03-14T14:20:38;1.70;;;0.60;;
68025;SDS011;54819;48.030;14.710;2023-03-14T14:23:10;7.30;;;2.50;;
68025;SDS011;54819;48.030;14.710;2023-03-14T14:25:42;12.50;;;3.90;;
68025;SDS011;54819;48.030;14.710;2023-03-14T14:28:36;7.70;;;2.00;;
68025;SDS011;54819;48.030;14.710;2023-03-14T14:33:43;1.80;;;0.60;;
68025;SDS011;54819;48.030;14.710;2023-03-14T14:36:36;1.40;;;0.40;;
68025;SDS011;54819;48.030;14.710;2023-03-14T14:39:17;0.30;;;0.30;;
68025;SDS011;54819;48.030;14.710;2023-03-14T14:41:48;0.30;;;0.30;;
68025;SDS011;54819;48.030;14.710;2023-03-14T14:44:21;0.90;;;0.30;;
68025;SDS011;54819;48.030;14.710;2023-03-14T14:46:56;1.50;;;0.40;;
68025;SDS011;54819;48.030;14.710;2023-03-14T14:49:30;0.50;;;0.40;;
68025;SDS011;54819;48.030;14.710;2023-03-14T14:52:06;3.20;;;1.40;;
68025;SDS011;54819;48.030;14.710;2023-03-14T14:54:53;3.40;;;1.50;;
68025;SDS011;54819;48.030;14.710;2023-03-14T14:57:27;7.60;;;3.00;;
68025;SDS011;54819;48.030;14.710;2023-03-14T15:00:02;10.50;;;4.40;;
68025;SDS011;54819;48.030;14.710;2023-03-14T15:02:47;11.30;;;4.50;;
68025;SDS011;54819;48.030;14.710;2023-03-14T15:05:27;8.90;;;3.20;;
68025;SDS011;54819;48.030;14.710;2023-03-14T15:07:56;7.20;;;2.50;;
68025;SDS011;54819;48.030;14.710;2023-03-14T15:10:24;8.80;;;3.10;;
68025;SDS011;54819;48.030;14.710;2023-03-14T15:12:52;5.80;;;2.10;;
68025;SDS011;54819;48.030;14.710;2023-03-14T15:15:19;4.50;;;1.60;;
68025;SDS011;54819;48.030;14.710;2023-03-14T15:17:46;1.20;;;0.50;;
68025;SDS011;54819;48.030;14.710;2023-03-14T15:20:15;0.80;;;0.30;;
68025;SDS011;54819;48.030;14.710;2023-03-14T15:22:45;0.50;;;0.20;;
68025;SDS011;54819;48.030;14.710;2023-03-14T15:25:12;1.20;;;0.40;;
68025;SDS011;54819;48.030;14.710;2023-03-14T15:27:59;1.50;;;0.60;;
68025;SDS011;54819;48.030;14.710;2023-03-14T15:30:25;0.70;;;0.30;;
68025;SDS011;54819;48.030;14.710;2023-03-14T15:32:52;0.50;;;0.20;;
68025;SDS011;54819;48.030;14.710;2023-03-14T15:35:19;2.20;;;0.50;;
68025;SDS011;54819;48.030;14.710;2023-03-14T15:37:46;1.00;;;0.30;;
68025;SDS011;54819;48.030;14.710;2023-03-14T15:40:13;0.50;;;0.30;;
68025;SDS011;54819;48.030;14.710;2023-03-14T15:42:41;0.80;;;0.40;;
68025;SDS011;54819;48.030;14.710;2023-03-14T15:45:08;0.60;;;0.40;;
68025;SDS011;54819;48.030;14.710;2023-03-14T15:47:35;0.30;;;0.30;;
68025;SDS011;54819;48.030;14.710;2023-03-14T15:50:02;0.80;;;0.40;;
68025;SDS011;54819;48.030;14.710;2023-03-14T15:52:30;1.00;;;0.40;;
68025;SDS011;54819;48.030;14.710;2023-03-14T15:54:56;0.60;;;0.40;;
68025;SDS011;54819;48.030;14.710;2023-03-14T15:57:23;1.80;;;0.50;;
68025;SDS011;54819;48.030;14.710;2023-03-14T15:59:51;1.20;;;0.40;;
68025;SDS011;54819;48.030;14.710;2023-03-14T16:02:18;1.50;;;0.70;;
68025;SDS011;54819;48.030;14.710;2023-03-14T16:04:44;6.10;;;1.00;;
68025;SDS011;54819;48.030;14.710;2023-03-14T16:07:12;0.70;;;0.40;;
68025;SDS011;54819;48.030;14.710;2023-03-14T16:09:38;0.40;;;0.20;;
68025;SDS011;54819;48.030;14.710;2023-03-14T16:12:05;0.70;;;0.50;;
68025;SDS011;54819;48.030;14.710;2023-03-14T16:14:34;2.90;;;1.10;;
68025;SDS011;54819;48.030;14.710;2023-03-14T16:17:01;5.40;;;2.10;;
68025;SDS011;54819;48.030;14.710;2023-03-14T16:19:28;0.60;;;0.40;;
68025;SDS011;54819;48.030;14.710;2023-03-14T16:21:57;1.20;;;0.50;;